sensor_id;sensor_type;location;lat;lon;timestamp;pressure;altitude;pressure_sealevel;temperature;humidity
69570;BME280;56781;42.292;23.146;2024-02-16T00:01:55;95792.97;;;0.94;66.68
69570;BME280;56781;42.292;23.146;2024-02-16T00:04:25;95817.38;;;1.22;66.52
69570;BME280;56781;42.292;23.146;2024-02-16T00:06:54;95633.97;;;-0.04;66.21
69570;BME280;56781;42.292;23.146;2024-02-16T00:09:23;95933.22;;;2.05;65.48
69570;BME280;56781;42.292;23.146;2024-02-16T00:11:52;95512.25;;;-1.04;67.22
69570;BME280;56781;42.292;23.146;2024-02-16T00:14:20;95997.34;;;1.62;67.63
69570;BME280;56781;42.292;23.146;2024-02-16T00:16:48;95943.31;;;1.59;68.03
69570;BME280;56781;42.292;23.146;2024-02-16T00:19:17;95742.69;;;0.07;68.39
69570;BME280;56781;42.292;23.146;2024-02-16T00:21:48;95896.38;;;1.14;68.62
69570;BME280;56781;42.292;23.146;2024-02-16T00:24:18;95187.34;;;-3.58;68.33
69570;BME280;56781;42.292;23.146;2024-02-16T00:26:46;95821.09;;;0.51;68.51
69570;BME280;56781;42.292;23.146;2024-02-16T00:29:15;95616.47;;;-1.27;68.58
69570;BME280;56781;42.292;23.146;2024-02-16T00:31:44;95941.31;;;1.22;69.08
69570;BME280;56781;42.292;23.146;2024-02-16T00:34:13;95995.19;;;1.22;69.57
69570;BME280;56781;42.292;23.146;2024-02-16T00:36:42;95964.16;;;1.16;69.63
69570;BME280;56781;42.292;23.146;2024-02-16T00:39:13;95692.50;;;-0.64;70.18
69570;BME280;56781;42.292;23.146;2024-02-16T00:41:41;95485.28;;;-2.30;70.71
69570;BME280;56781;42.292;23.146;2024-02-16T00:44:10;95930.31;;;0.73;70.57
69570;BME280;56781;42.292;23.146;2024-02-16T00:46:39;95826.44;;;0.18;70.70
69570;BME280;56781;42.292;23.146;2024-02-16T00:49:08;95842.28;;;0.19;70.48
69570;BME280;56781;42.292;23.146;2024-02-16T00:51:37;95440.47;;;-2.59;70.13
69570;BME280;56781;42.292;23.146;2024-02-16T00:54:06;95936.63;;;0.77;70.00
69570;BME280;56781;42.292;23.146;2024-02-16T00:56:37;95830.97;;;0.05;70.91
69570;BME280;56781;42.292;23.146;2024-02-16T00:59:05;95251.84;;;-3.68;70.26
69570;BME280;56781;42.292;23.146;2024-02-16T01:01:36;95201.28;;;-3.99;70.64
69570;BME280;56781;42.292;23.146;2024-02-16T01:04:04;96005.00;;;0.85;71.20
69570;BME280;56781;42.292;23.146;2024-02-16T01:06:34;95327.56;;;-3.47;71.11
69570;BME280;56781;42.292;23.146;2024-02-16T01:09:02;95201.97;;;-4.29;71.78
69570;BME280;56781;42.292;23.146;2024-02-16T01:11:31;95568.47;;;-1.88;71.70
69570;BME280;56781;42.292;23.146;2024-02-16T01:14:02;95506.75;;;-2.48;70.54
69570;BME280;56781;42.292;23.146;2024-02-16T01:16:31;95863.19;;;0.35;70.09
69570;BME280;56781;42.292;23.146;2024-02-16T01:19:00;95375.00;;;-2.71;69.61
69570;BME280;56781;42.292;23.146;2024-02-16T01:21:29;95840.28;;;0.29;69.45
69570;BME280;56781;42.292;23.146;2024-02-16T01:23:58;95958.25;;;1.23;68.88
69570;BME280;56781;42.292;23.146;2024-02-16T01:26:28;95811.66;;;0.45;68.03
69570;BME280;56781;42.292;23.146;2024-02-16T01:28:56;95966.88;;;1.49;67.73
69570;BME280;56781;42.292;23.146;2024-02-16T01:31:27;95818.56;;;0.55;68.41
69570;BME280;56781;42.292;23.146;2024-02-16T01:33:56;95967.09;;;1.44;68.33
69570;BME280;56781;42.292;23.146;2024-02-16T01:36:25;95460.78;;;-1.90;68.44
69570;BME280;56781;42.292;23.146;2024-02-16T01:38:53;95857.22;;;0.29;68.79
69570;BME280;56781;42.292;23.146;2024-02-16T01:41:22;95674.41;;;-0.76;69.53
69570;BME280;56781;42.292;23.146;2024-02-16T01:43:52;95149.66;;;-4.30;69.19
69570;BME280;56781;42.292;23.146;2024-02-16T01:46:22;95362.16;;;-3.42;70.54
69570;BME280;56781;42.292;23.146;2024-02-16T01:48:53;95941.44;;;0.72;70.33
69570;BME280;56781;42.292;23.146;2024-02-16T01:51:23;95481.91;;;-2.57;71.04
69570;BME280;56781;42.292;23.146;2024-02-16T01:53:53;96005.91;;;0.47;71.58
69570;BME280;56781;42.292;23.146;2024-02-16T01:56:23;95032.38;;;-5.86;71.80
69570;BME280;56781;42.292;23.146;2024-02-16T01:58:54;95210.75;;;-4.98;72.71
69570;BME280;56781;42.292;23.146;2024-02-16T02:01:22;95677.75;;;-1.85;73.12
69570;BME280;56781;42.292;23.146;2024-02-16T02:03:53;95309.25;;;-4.18;73.60
69570;BME280;56781;42.292;23.146;2024-02-16T02:06:22;95817.53;;;-0.75;73.87
69570;BME280;56781;42.292;23.146;2024-02-16T02:08:51;95947.50;;;0.18;73.17
69570;BME280;56781;42.292;23.146;2024-02-16T02:11:20;95956.81;;;0.20;73.65
69570;BME280;56781;42.292;23.146;2024-02-16T02:13:48;95527.31;;;-3.04;73.32
69570;BME280;56781;42.292;23.146;2024-02-16T02:16:18;95995.78;;;-0.33;74.57
69570;BME280;56781;42.292;23.146;2024-02-16T02:18:47;95819.59;;;-1.28;75.08
69570;BME280;56781;42.292;23.146;2024-02-16T02:21:18;95864.59;;;-1.34;74.78
69570;BME280;56781;42.292;23.146;2024-02-16T02:23:48;95984.22;;;-0.25;74.93
69570;BME280;56781;42.292;23.146;2024-02-16T02:26:17;95823.34;;;-1.03;74.53
69570;BME280;56781;42.292;23.146;2024-02-16T02:28:45;95211.00;;;-5.17;74.78
69570;BME280;56781;42.292;23.146;2024-02-16T02:31:14;95563.19;;;-3.14;74.83
69570;BME280;56781;42.292;23.146;2024-02-16T02:33:43;95814.28;;;-1.45;74.92
69570;BME280;56781;42.292;23.146;2024-02-16T02:36:12;95631.69;;;-2.95;75.64
69570;BME280;56781;42.292;23.146;2024-02-16T02:38:40;95697.00;;;-2.09;75.60
69570;BME280;56781;42.292;23.146;2024-02-16T02:41:10;95843.06;;;-0.99;75.17
69570;BME280;56781;42.292;23.146;2024-02-16T02:43:39;95315.00;;;-4.59;75.34
69570;BME280;56781;42.292;23.146;2024-02-16T02:46:07;95965.78;;;-0.35;75.88
69570;BME280;56781;42.292;23.146;2024-02-16T02:48:36;95222.03;;;-5.09;75.29
69570;BME280;56781;42.292;23.146;2024-02-16T02:51:05;95811.56;;;-0.81;74.02
69570;BME280;56781;42.292;23.146;2024-02-16T02:53:34;95406.34;;;-3.62;74.41
69570;BME280;56781;42.292;23.146;2024-02-16T02:56:03;95898.59;;;-0.43;73.73
69570;BME280;56781;42.292;23.146;2024-02-16T02:58:34;95965.53;;;0.17;74.29
69570;BME280;56781;42.292;23.146;2024-02-16T03:01:03;95833.19;;;-0.77;73.68
69570;BME280;56781;42.292;23.146;2024-02-16T03:03:35;95386.84;;;-3.88;73.78
69570;BME280;56781;42.292;23.146;2024-02-16T03:06:04;95960.53;;;-0.31;75.41
69570;BME280;56781;42.292;23.146;2024-02-16T03:08:33;95978.06;;;-0.25;75.34
69570;BME280;56781;42.292;23.146;2024-02-16T03:11:02;95879.53;;;-1.06;75.32
69570;BME280;56781;42.292;23.146;2024-02-16T03:13:31;95449.72;;;-4.48;76.47
69570;BME280;56781;42.292;23.146;2024-02-16T03:16:02;95730.09;;;-2.83;77.02
69570;BME280;56781;42.292;23.146;2024-02-16T03:18:31;95938.78;;;-1.38;76.87
69570;BME280;56781;42.292;23.146;2024-02-16T03:21:00;95453.91;;;-4.64;77.59
69570;BME280;56781;42.292;23.146;2024-02-16T03:23:28;95622.72;;;-3.65;78.11
69570;BME280;56781;42.292;23.146;2024-02-16T03:25:57;95626.50;;;-3.66;78.00
69570;BME280;56781;42.292;23.146;2024-02-16T03:28:26;95837.75;;;-2.38;79.01
69570;BME280;56781;42.292;23.146;2024-02-16T03:30:55;95851.63;;;-2.36;79.03
69570;BME280;56781;42.292;23.146;2024-02-16T03:33:25;95221.75;;;-6.41;78.97
69570;BME280;56781;42.292;23.146;2024-02-16T03:35:54;95991.81;;;-1.52;80.28
69570;BME280;56781;42.292;23.146;2024-02-16T03:38:23;95499.84;;;-4.76;80.11
69570;BME280;56781;42.292;23.146;2024-02-16T03:40:52;95993.06;;;-1.49;80.14
69570;BME280;56781;42.292;23.146;2024-02-16T03:43:21;95494.09;;;-4.92;80.08
69570;BME280;56781;42.292;23.146;2024-02-16T03:45:49;95202.78;;;-6.62;80.18
69570;BME280;56781;42.292;23.146;2024-02-16T03:48:18;95470.41;;;-4.94;80.24
69570;BME280;56781;42.292;23.146;2024-02-16T03:50:48;95153.41;;;-7.00;80.14
69570;BME280;56781;42.292;23.146;2024-02-16T03:53:17;95288.53;;;-6.29;80.88
69570;BME280;56781;42.292;23.146;2024-02-16T03:55:45;96002.84;;;-1.62;80.71
69570;BME280;56781;42.292;23.146;2024-02-16T03:58:13;95877.47;;;-2.40;80.30
69570;BME280;56781;42.292;23.146;2024-02-16T04:00:42;95924.97;;;-2.14;81.49
69570;BME280;56781;42.292;23.146;2024-02-16T04:03:11;95237.81;;;-6.69;80.66
69570;BME280;56781;42.292;23.146;2024-02-16T04:05:40;95451.47;;;-5.37;80.40
69570;BME280;56781;42.292;23.146;2024-02-16T04:08:11;95986.09;;;-1.68;81.03
69570;BME280;56781;42.292;23.146;2024-02-16T04:10:40;95583.47;;;-4.27;80.50
69570;BME280;56781;42.292;23.146;2024-02-16T04:13:09;95203.34;;;-6.74;79.67
69570;BME280;56781;42.292;23.146;2024-02-16T04:15:38;95634.50;;;-4.06;80.66
69570;BME280;56781;42.292;23.146;2024-02-16T04:18:07;95841.97;;;-2.54;81.23
69570;BME280;56781;42.292;23.146;2024-02-16T04:20:36;95595.38;;;-4.33;80.62
69570;BME280;56781;42.292;23.146;2024-02-16T04:23:09;96001.44;;;-1.51;80.16
69570;BME280;56781;42.292;23.146;2024-02-16T04:25:38;95848.72;;;-2.65;79.69
69570;BME280;56781;42.292;23.146;2024-02-16T04:28:07;95839.88;;;-2.66;79.65
69570;BME280;56781;42.292;23.146;2024-02-16T04:30:37;95889.25;;;-2.50;80.01
69570;BME280;56781;42.292;23.146;2024-02-16T04:33:05;95505.13;;;-5.52;78.82
69570;BME280;56781;42.292;23.146;2024-02-16T04:35:34;95107.22;;;-8.32;80.37
69570;BME280;56781;42.292;23.146;2024-02-16T04:38:03;95895.13;;;-3.32;82.92
69570;BME280;56781;42.292;23.146;2024-02-16T04:40:37;95569.00;;;-5.61;82.36
69570;BME280;56781;42.292;23.146;2024-02-16T04:43:05;95863.28;;;-3.43;82.67
69570;BME280;56781;42.292;23.146;2024-02-16T04:45:35;95172.19;;;-8.02;83.52
69570;BME280;56781;42.292;23.146;2024-02-16T04:48:04;95288.28;;;-7.05;82.76
69570;BME280;56781;42.292;23.146;2024-02-16T04:50:34;95986.88;;;-2.25;82.18
69570;BME280;56781;42.292;23.146;2024-02-16T04:53:03;95201.31;;;-7.41;80.91
69570;BME280;56781;42.292;23.146;2024-02-16T04:55:31;95413.91;;;-6.44;81.84
69570;BME280;56781;42.292;23.146;2024-02-16T04:58:02;95284.56;;;-7.18;79.69
69570;BME280;56781;42.292;23.146;2024-02-16T05:00:37;95997.47;;;-2.51;82.63
69570;BME280;56781;42.292;23.146;2024-02-16T05:03:06;96002.72;;;-2.68;80.19
69570;BME280;56781;42.292;23.146;2024-02-16T05:05:36;95456.06;;;-6.52;81.85
69570;BME280;56781;42.292;23.146;2024-02-16T05:08:05;95424.72;;;-6.27;81.65
69570;BME280;56781;42.292;23.146;2024-02-16T05:10:34;95191.75;;;-8.11;81.65
69570;BME280;56781;42.292;23.146;2024-02-16T05:13:05;95749.34;;;-4.65;81.49
69570;BME280;56781;42.292;23.146;2024-02-16T05:15:33;95966.00;;;-3.21;83.10
69570;BME280;56781;42.292;23.146;2024-02-16T05:18:01;96019.66;;;-3.04;83.06
69570;BME280;56781;42.292;23.146;2024-02-16T05:20:30;95857.94;;;-3.88;82.53
69570;BME280;56781;42.292;23.146;2024-02-16T05:22:59;95895.22;;;-3.83;82.47
69570;BME280;56781;42.292;23.146;2024-02-16T05:25:28;95915.84;;;-3.61;81.80
69570;BME280;56781;42.292;23.146;2024-02-16T05:27:57;95251.47;;;-8.28;81.91
69570;BME280;56781;42.292;23.146;2024-02-16T05:30:27;95589.94;;;-6.23;83.71
69570;BME280;56781;42.292;23.146;2024-02-16T05:32:56;95909.94;;;-4.21;84.40
69570;BME280;56781;42.292;23.146;2024-02-16T05:35:26;95865.56;;;-4.73;84.30
69570;BME280;56781;42.292;23.146;2024-02-16T05:37:57;95742.88;;;-5.00;83.65
69570;BME280;56781;42.292;23.146;2024-02-16T05:40:28;95267.56;;;-8.24;83.33
69570;BME280;56781;42.292;23.146;2024-02-16T05:42:58;95510.66;;;-6.54;82.95
69570;BME280;56781;42.292;23.146;2024-02-16T05:45:28;95646.03;;;-5.65;83.20
69570;BME280;56781;42.292;23.146;2024-02-16T05:47:56;95239.69;;;-8.21;83.34
69570;BME280;56781;42.292;23.146;2024-02-16T05:50:26;95935.72;;;-3.53;83.82
69570;BME280;56781;42.292;23.146;2024-02-16T05:52:55;96033.22;;;-2.78;83.63
69570;BME280;56781;42.292;23.146;2024-02-16T05:55:24;95937.19;;;-3.47;82.55
69570;BME280;56781;42.292;23.146;2024-02-16T05:57:52;95951.63;;;-3.48;82.95
69570;BME280;56781;42.292;23.146;2024-02-16T06:00:21;95903.28;;;-3.60;83.32
69570;BME280;56781;42.292;23.146;2024-02-16T06:02:52;95940.81;;;-3.43;82.51
69570;BME280;56781;42.292;23.146;2024-02-16T06:05:20;95767.31;;;-4.57;81.96
69570;BME280;56781;42.292;23.146;2024-02-16T06:07:49;95632.13;;;-5.34;82.77
69570;BME280;56781;42.292;23.146;2024-02-16T06:10:18;95933.13;;;-3.44;82.67
69570;BME280;56781;42.292;23.146;2024-02-16T06:12:47;95532.75;;;-5.98;82.55
69570;BME280;56781;42.292;23.146;2024-02-16T06:15:16;96037.69;;;-3.09;83.45
69570;BME280;56781;42.292;23.146;2024-02-16T06:17:45;95918.91;;;-3.31;82.87
69570;BME280;56781;42.292;23.146;2024-02-16T06:20:15;96067.25;;;-2.25;82.57
69570;BME280;56781;42.292;23.146;2024-02-16T06:22:47;95773.38;;;-4.29;82.24
69570;BME280;56781;42.292;23.146;2024-02-16T06:25:16;95279.06;;;-7.22;82.21
69570;BME280;56781;42.292;23.146;2024-02-16T06:27:46;95386.66;;;-6.28;81.27
69570;BME280;56781;42.292;23.146;2024-02-16T06:30:14;95793.28;;;-3.05;80.18
69570;BME280;56781;42.292;23.146;2024-02-16T06:32:43;95929.94;;;-1.47;78.62
69570;BME280;56781;42.292;23.146;2024-02-16T06:35:12;95920.38;;;-0.75;75.79
69570;BME280;56781;42.292;23.146;2024-02-16T06:37:43;96058.34;;;0.92;72.85
69570;BME280;56781;42.292;23.146;2024-02-16T06:40:12;96054.81;;;1.54;69.76
69570;BME280;56781;42.292;23.146;2024-02-16T06:42:41;95320.06;;;-2.47;65.99
69570;BME280;56781;42.292;23.146;2024-02-16T06:45:10;95498.63;;;-0.78;63.36
69570;BME280;56781;42.292;23.146;2024-02-16T06:47:39;95413.22;;;-0.85;62.16
69570;BME280;56781;42.292;23.146;2024-02-16T06:50:08;95423.81;;;0.06;60.12
69570;BME280;56781;42.292;23.146;2024-02-16T06:52:36;95356.97;;;0.33;58.04
69570;BME280;56781;42.292;23.146;2024-02-16T06:55:08;96050.31;;;5.91;54.88
69570;BME280;56781;42.292;23.146;2024-02-16T06:57:36;95438.22;;;2.69;53.03
69570;BME280;56781;42.292;23.146;2024-02-16T07:00:06;95777.41;;;5.74;50.30
69570;BME280;56781;42.292;23.146;2024-02-16T07:02:36;96051.81;;;6.31;51.51
69570;BME280;56781;42.292;23.146;2024-02-16T07:05:05;95434.84;;;2.37;51.75
69570;BME280;56781;42.292;23.146;2024-02-16T07:07:33;95418.13;;;2.66;50.08
69570;BME280;56781;42.292;23.146;2024-02-16T07:10:03;95822.47;;;6.05;48.82
69570;BME280;56781;42.292;23.146;2024-02-16T07:12:33;95749.22;;;5.82;46.66
69570;BME280;56781;42.292;23.146;2024-02-16T07:15:03;96048.94;;;8.65;46.13
69570;BME280;56781;42.292;23.146;2024-02-16T07:17:32;95943.94;;;8.37;45.47
69570;BME280;56781;42.292;23.146;2024-02-16T07:20:01;96049.16;;;9.60;42.12
69570;BME280;56781;42.292;23.146;2024-02-16T07:22:31;96048.50;;;9.91;42.52
69570;BME280;56781;42.292;23.146;2024-02-16T07:25:00;95873.63;;;8.64;42.24
69570;BME280;56781;42.292;23.146;2024-02-16T07:27:29;95852.53;;;8.51;42.27
69570;BME280;56781;42.292;23.146;2024-02-16T07:29:59;95654.88;;;7.98;40.92
69570;BME280;56781;42.292;23.146;2024-02-16T07:32:28;95946.19;;;11.00;38.79
69570;BME280;56781;42.292;23.146;2024-02-16T07:34:57;96042.22;;;9.87;40.78
69570;BME280;56781;42.292;23.146;2024-02-16T07:37:25;95496.00;;;6.19;42.70
69570;BME280;56781;42.292;23.146;2024-02-16T07:39:53;95533.06;;;6.01;44.13
69570;BME280;56781;42.292;23.146;2024-02-16T07:42:22;95400.69;;;5.90;41.36
69570;BME280;56781;42.292;23.146;2024-02-16T07:44:53;95679.50;;;8.27;39.78
69570;BME280;56781;42.292;23.146;2024-02-16T07:47:23;95962.66;;;10.28;39.92
69570;BME280;56781;42.292;23.146;2024-02-16T07:49:51;95657.88;;;7.75;40.65
69570;BME280;56781;42.292;23.146;2024-02-16T07:52:20;95708.16;;;6.48;44.23
69570;BME280;56781;42.292;23.146;2024-02-16T07:54:49;96037.00;;;8.84;44.49
69570;BME280;56781;42.292;23.146;2024-02-16T07:57:18;95800.22;;;6.53;46.08
69570;BME280;56781;42.292;23.146;2024-02-16T07:59:47;95705.69;;;5.75;46.78
69570;BME280;56781;42.292;23.146;2024-02-16T08:02:16;95512.75;;;5.20;46.58
69570;BME280;56781;42.292;23.146;2024-02-16T08:04:48;95703.44;;;6.41;45.59
69570;BME280;56781;42.292;23.146;2024-02-16T08:07:17;96055.81;;;8.48;46.56
69570;BME280;56781;42.292;23.146;2024-02-16T08:09:46;95754.75;;;6.50;46.43
69570;BME280;56781;42.292;23.146;2024-02-16T08:12:15;96054.25;;;9.65;43.13
69570;BME280;56781;42.292;23.146;2024-02-16T08:14:43;95749.69;;;7.74;45.28
69570;BME280;56781;42.292;23.146;2024-02-16T08:17:13;95920.88;;;8.83;43.96
69570;BME280;56781;42.292;23.146;2024-02-16T08:19:53;96055.84;;;9.00;46.10
69570;BME280;56781;42.292;23.146;2024-02-16T08:22:22;95752.84;;;7.84;43.80
69570;BME280;56781;42.292;23.146;2024-02-16T08:24:51;95737.53;;;8.31;41.20
69570;BME280;56781;42.292;23.146;2024-02-16T08:27:19;95902.81;;;9.51;43.06
69570;BME280;56781;42.292;23.146;2024-02-16T08:29:48;96061.34;;;11.84;37.86
69570;BME280;56781;42.292;23.146;2024-02-16T08:32:17;96047.75;;;11.45;41.43
69570;BME280;56781;42.292;23.146;2024-02-16T08:34:47;95487.44;;;7.60;40.93
69570;BME280;56781;42.292;23.146;2024-02-16T08:37:19;95518.34;;;7.08;40.67
69570;BME280;56781;42.292;23.146;2024-02-16T08:39:47;96045.31;;;9.75;42.46
69570;BME280;56781;42.292;23.146;2024-02-16T08:42:16;96050.97;;;8.75;45.80
69570;BME280;56781;42.292;23.146;2024-02-16T08:44:44;96059.94;;;8.35;47.08
69570;BME280;56781;42.292;23.146;2024-02-16T08:47:13;95598.16;;;5.33;47.42
69570;BME280;56781;42.292;23.146;2024-02-16T08:49:42;95548.47;;;4.72;46.35
69570;BME280;56781;42.292;23.146;2024-02-16T08:52:11;95750.03;;;5.33;49.79
69570;BME280;56781;42.292;23.146;2024-02-16T08:54:42;95401.81;;;3.44;51.11
69570;BME280;56781;42.292;23.146;2024-02-16T08:57:11;95973.59;;;7.27;49.45
69570;BME280;56781;42.292;23.146;2024-02-16T08:59:40;96043.97;;;7.59;47.97
69570;BME280;56781;42.292;23.146;2024-02-16T09:02:08;95410.19;;;3.59;51.92
69570;BME280;56781;42.292;23.146;2024-02-16T09:04:37;95897.44;;;6.97;49.69
69570;BME280;56781;42.292;23.146;2024-02-16T09:07:05;95420.63;;;3.60;48.60
69570;BME280;56781;42.292;23.146;2024-02-16T09:09:34;95790.97;;;5.74;48.63
69570;BME280;56781;42.292;23.146;2024-02-16T09:12:04;95756.25;;;5.87;51.74
69570;BME280;56781;42.292;23.146;2024-02-16T09:14:33;95916.25;;;7.09;48.80
69570;BME280;56781;42.292;23.146;2024-02-16T09:17:02;95423.69;;;4.05;50.27
69570;BME280;56781;42.292;23.146;2024-02-16T09:19:30;96058.47;;;8.41;48.69
69570;BME280;56781;42.292;23.146;2024-02-16T09:21:59;95733.25;;;6.04;47.83
69570;BME280;56781;42.292;23.146;2024-02-16T09:24:29;95705.25;;;5.99;49.77
69570;BME280;56781;42.292;23.146;2024-02-16T09:26:58;96056.47;;;8.38;47.94
69570;BME280;56781;42.292;23.146;2024-02-16T09:29:32;95596.50;;;5.25;49.92
69570;BME280;56781;42.292;23.146;2024-02-16T09:32:01;95653.78;;;6.10;50.18
69570;BME280;56781;42.292;23.146;2024-02-16T09:34:30;95763.38;;;7.33;48.86
69570;BME280;56781;42.292;23.146;2024-02-16T09:36:58;96044.28;;;9.21;47.66
69570;BME280;56781;42.292;23.146;2024-02-16T09:39:27;95569.16;;;5.71;47.63
69570;BME280;56781;42.292;23.146;2024-02-16T09:41:57;95829.63;;;7.52;47.67
69570;BME280;56781;42.292;23.146;2024-02-16T09:44:26;95244.72;;;3.80;46.35
69570;BME280;56781;42.292;23.146;2024-02-16T09:46:59;95440.31;;;5.20;47.59
69570;BME280;56781;42.292;23.146;2024-02-16T09:49:30;95920.50;;;8.26;47.99
69570;BME280;56781;42.292;23.146;2024-02-16T09:52:08;95964.88;;;8.78;45.21
69570;BME280;56781;42.292;23.146;2024-02-16T09:54:39;95660.88;;;6.56;45.94
69570;BME280;56781;42.292;23.146;2024-02-16T09:57:08;95337.75;;;3.98;45.07
69570;BME280;56781;42.292;23.146;2024-02-16T09:59:36;95920.97;;;7.90;48.27
69570;BME280;56781;42.292;23.146;2024-02-16T10:02:07;95335.19;;;4.39;45.93
69570;BME280;56781;42.292;23.146;2024-02-16T10:04:36;95456.91;;;5.49;45.81
69570;BME280;56781;42.292;23.146;2024-02-16T10:07:04;95511.25;;;5.26;46.23
69570;BME280;56781;42.292;23.146;2024-02-16T10:09:39;95362.19;;;4.32;47.86
69570;BME280;56781;42.292;23.146;2024-02-16T10:12:09;95850.25;;;7.53;46.91
69570;BME280;56781;42.292;23.146;2024-02-16T10:14:38;96007.53;;;9.04;46.93
69570;BME280;56781;42.292;23.146;2024-02-16T10:17:16;95527.78;;;6.18;45.63
69570;BME280;56781;42.292;23.146;2024-02-16T10:19:55;95999.88;;;9.35;44.14
69570;BME280;56781;42.292;23.146;2024-02-16T10:22:24;95662.84;;;6.59;46.79
69570;BME280;56781;42.292;23.146;2024-02-16T10:24:52;95707.31;;;6.81;46.81
69570;BME280;56781;42.292;23.146;2024-02-16T10:27:21;95660.97;;;6.29;45.32
69570;BME280;56781;42.292;23.146;2024-02-16T10:29:51;95689.72;;;6.68;45.52
69570;BME280;56781;42.292;23.146;2024-02-16T10:32:24;95968.50;;;8.96;45.45
69570;BME280;56781;42.292;23.146;2024-02-16T10:34:54;95283.31;;;4.37;47.94
69570;BME280;56781;42.292;23.146;2024-02-16T10:37:24;95962.78;;;8.57;45.75
69570;BME280;56781;42.292;23.146;2024-02-16T10:39:54;95984.88;;;9.00;46.29
69570;BME280;56781;42.292;23.146;2024-02-16T10:42:26;95518.13;;;5.84;46.93
69570;BME280;56781;42.292;23.146;2024-02-16T10:44:55;95990.34;;;8.96;46.55
69570;BME280;56781;42.292;23.146;2024-02-16T10:47:25;95823.50;;;8.17;47.55
69570;BME280;56781;42.292;23.146;2024-02-16T10:49:55;95391.56;;;5.65;45.28
69570;BME280;56781;42.292;23.146;2024-02-16T10:52:24;95866.41;;;9.08;45.90
69570;BME280;56781;42.292;23.146;2024-02-16T10:54:53;95400.22;;;5.81;44.77
69570;BME280;56781;42.292;23.146;2024-02-16T10:57:23;95981.31;;;9.76;47.01
69570;BME280;56781;42.292;23.146;2024-02-16T10:59:53;95518.91;;;6.73;46.05
69570;BME280;56781;42.292;23.146;2024-02-16T11:02:23;95325.59;;;5.61;44.38
69570;BME280;56781;42.292;23.146;2024-02-16T11:04:55;95629.63;;;7.28;43.74
69570;BME280;56781;42.292;23.146;2024-02-16T11:07:24;95907.59;;;8.78;44.67
69570;BME280;56781;42.292;23.146;2024-02-16T11:09:53;95640.22;;;7.51;46.39
69570;BME280;56781;42.292;23.146;2024-02-16T11:12:22;95452.63;;;6.33;45.14
69570;BME280;56781;42.292;23.146;2024-02-16T11:14:51;95956.38;;;9.99;45.87
69570;BME280;56781;42.292;23.146;2024-02-16T11:17:23;95525.34;;;7.06;45.94
69570;BME280;56781;42.292;23.146;2024-02-16T11:19:56;95200.97;;;4.79;45.15
69570;BME280;56781;42.292;23.146;2024-02-16T11:22:29;95284.50;;;5.10;46.13
69570;BME280;56781;42.292;23.146;2024-02-16T11:24:58;95555.63;;;7.08;46.65
69570;BME280;56781;42.292;23.146;2024-02-16T11:27:31;95453.69;;;6.73;46.59
69570;BME280;56781;42.292;23.146;2024-02-16T11:30:02;95328.31;;;6.12;46.05
69570;BME280;56781;42.292;23.146;2024-02-16T11:32:32;95962.63;;;10.14;45.56
69570;BME280;56781;42.292;23.146;2024-02-16T11:35:07;95587.13;;;7.86;45.31
69570;BME280;56781;42.292;23.146;2024-02-16T11:37:36;95824.34;;;9.20;45.89
69570;BME280;56781;42.292;23.146;2024-02-16T11:40:07;95445.19;;;6.85;46.65
69570;BME280;56781;42.292;23.146;2024-02-16T11:42:39;95543.78;;;7.45;43.51
69570;BME280;56781;42.292;23.146;2024-02-16T11:45:10;95937.59;;;9.90;45.32
69570;BME280;56781;42.292;23.146;2024-02-16T11:47:39;95452.56;;;6.88;46.20
69570;BME280;56781;42.292;23.146;2024-02-16T11:50:10;95618.28;;;7.99;46.85
69570;BME280;56781;42.292;23.146;2024-02-16T11:52:40;95278.44;;;5.80;44.41
69570;BME280;56781;42.292;23.146;2024-02-16T11:55:09;95503.75;;;7.45;44.02
69570;BME280;56781;42.292;23.146;2024-02-16T11:57:38;95481.88;;;7.24;44.57
69570;BME280;56781;42.292;23.146;2024-02-16T12:00:08;95802.56;;;9.59;45.15
69570;BME280;56781;42.292;23.146;2024-02-16T12:02:42;95366.59;;;6.55;45.22
69570;BME280;56781;42.292;23.146;2024-02-16T12:05:15;95332.03;;;6.52;45.70
69570;BME280;56781;42.292;23.146;2024-02-16T12:07:46;95906.81;;;10.43;45.93
69570;BME280;56781;42.292;23.146;2024-02-16T12:10:15;95313.50;;;6.79;45.28
69570;BME280;56781;42.292;23.146;2024-02-16T12:12:43;95544.41;;;8.18;44.99
69570;BME280;56781;42.292;23.146;2024-02-16T12:15:12;95793.97;;;9.89;43.25
69570;BME280;56781;42.292;23.146;2024-02-16T12:17:41;95387.75;;;6.98;44.43
69570;BME280;56781;42.292;23.146;2024-02-16T12:20:14;95111.38;;;5.09;44.13
69570;BME280;56781;42.292;23.146;2024-02-16T12:22:43;95907.97;;;10.50;45.65
69570;BME280;56781;42.292;23.146;2024-02-16T12:25:12;95917.72;;;10.72;44.89
69570;BME280;56781;42.292;23.146;2024-02-16T12:27:41;95482.09;;;7.99;45.13
69570;BME280;56781;42.292;23.146;2024-02-16T12:30:10;95500.81;;;8.33;45.81
69570;BME280;56781;42.292;23.146;2024-02-16T12:32:39;95906.25;;;11.09;45.88
69570;BME280;56781;42.292;23.146;2024-02-16T12:35:08;95670.66;;;9.66;43.51
69570;BME280;56781;42.292;23.146;2024-02-16T12:37:39;95836.06;;;10.49;43.13
69570;BME280;56781;42.292;23.146;2024-02-16T12:40:08;95870.38;;;10.79;43.90
69570;BME280;56781;42.292;23.146;2024-02-16T12:42:37;95864.50;;;10.84;42.82
69570;BME280;56781;42.292;23.146;2024-02-16T12:45:06;95891.50;;;10.78;44.65
69570;BME280;56781;42.292;23.146;2024-02-16T12:47:35;95866.44;;;10.87;44.29
69570;BME280;56781;42.292;23.146;2024-02-16T12:50:04;95786.91;;;10.13;43.34
69570;BME280;56781;42.292;23.146;2024-02-16T12:52:33;95785.34;;;10.09;44.84
69570;BME280;56781;42.292;23.146;2024-02-16T12:55:17;95334.22;;;7.30;44.78
69570;BME280;56781;42.292;23.146;2024-02-16T12:57:46;95595.09;;;9.13;43.26
69570;BME280;56781;42.292;23.146;2024-02-16T13:00:15;95181.78;;;6.44;43.57
69570;BME280;56781;42.292;23.146;2024-02-16T13:02:44;95235.06;;;6.99;42.02
69570;BME280;56781;42.292;23.146;2024-02-16T13:05:12;95601.25;;;9.60;46.45
69570;BME280;56781;42.292;23.146;2024-02-16T13:07:41;95847.13;;;11.26;46.02